sensor_id;sensor_type;location;lat;lon;timestamp;temperature;humidity
37594;DHT22;23441;50.856;6.076;2024-02-21T00:02:18;8.10;99.90
37594;DHT22;23441;50.856;6.076;2024-02-21T00:05:04;8.00;99.90
37594;DHT22;23441;50.856;6.076;2024-02-21T00:07:50;8.00;99.90
37594;DHT22;23441;50.856;6.076;2024-02-21T00:10:36;8.00;99.90
37594;DHT22;23441;50.856;6.076;2024-02-21T00:13:22;8.00;99.90
37594;DHT22;23441;50.856;6.076;2024-02-21T00:16:08;8.10;99.90
37594;DHT22;23441;50.856;6.076;2024-02-21T00:18:54;8.00;99.90
37594;DHT22;23441;50.856;6.076;2024-02-21T00:21:40;7.90;99.90
37594;DHT22;23441;50.856;6.076;2024-02-21T00:24:26;7.90;99.90
37594;DHT22;23441;50.856;6.076;2024-02-21T00:27:12;7.90;99.90
37594;DHT22;23441;50.856;6.076;2024-02-21T00:29:58;7.90;99.90
37594;DHT22;23441;50.856;6.076;2024-02-21T00:32:44;7.90;99.90
37594;DHT22;23441;50.856;6.076;2024-02-21T00:35:30;7.80;99.90
37594;DHT22;23441;50.856;6.076;2024-02-21T00:38:16;7.80;99.90
37594;DHT22;23441;50.856;6.076;2024-02-21T00:41:02;7.80;99.90
37594;DHT22;23441;50.856;6.076;2024-02-21T00:43:48;7.90;99.90
37594;DHT22;23441;50.856;6.076;2024-02-21T00:46:35;7.90;99.90
37594;DHT22;23441;50.856;6.076;2024-02-21T00:49:24;7.90;99.90
37594;DHT22;23441;50.856;6.076;2024-02-21T00:52:10;7.90;99.90
37594;DHT22;23441;50.856;6.076;2024-02-21T00:54:56;7.80;99.90
37594;DHT22;23441;50.856;6.076;2024-02-21T00:57:42;7.80;99.90
37594;DHT22;23441;50.856;6.076;2024-02-21T01:00:27;7.80;99.90
37594;DHT22;23441;50.856;6.076;2024-02-21T01:03:13;7.80;99.90
37594;DHT22;23441;50.856;6.076;2024-02-21T01:05:59;7.80;99.90
37594;DHT22;23441;50.856;6.076;2024-02-21T01:08:46;7.80;99.90
37594;DHT22;23441;50.856;6.076;2024-02-21T01:11:33;7.80;99.90
37594;DHT22;23441;50.856;6.076;2024-02-21T01:14:19;7.80;99.90
37594;DHT22;23441;50.856;6.076;2024-02-21T01:17:05;7.80;99.90
37594;DHT22;23441;50.856;6.076;2024-02-21T01:19:52;7.80;99.90
37594;DHT22;23441;50.856;6.076;2024-02-21T01:22:37;7.80;99.90
37594;DHT22;23441;50.856;6.076;2024-02-21T01:25:23;7.80;99.90
37594;DHT22;23441;50.856;6.076;2024-02-21T01:28:09;7.80;99.90
37594;DHT22;23441;50.856;6.076;2024-02-21T01:30:55;7.80;99.90
37594;DHT22;23441;50.856;6.076;2024-02-21T01:33:41;7.80;99.90
37594;DHT22;23441;50.856;6.076;2024-02-21T01:36:28;7.80;99.90
37594;DHT22;23441;50.856;6.076;2024-02-21T01:39:14;7.90;99.90
37594;DHT22;23441;50.856;6.076;2024-02-21T01:42:00;7.90;99.90
37594;DHT22;23441;50.856;6.076;2024-02-21T01:44:46;7.90;99.90
37594;DHT22;23441;50.856;6.076;2024-02-21T01:47:32;7.90;99.90
37594;DHT22;23441;50.856;6.076;2024-02-21T01:50:19;7.80;99.90
37594;DHT22;23441;50.856;6.076;2024-02-21T01:53:05;7.90;99.90
37594;DHT22;23441;50.856;6.076;2024-02-21T01:55:52;7.80;99.90
37594;DHT22;23441;50.856;6.076;2024-02-21T01:58:40;7.90;99.90
37594;DHT22;23441;50.856;6.076;2024-02-21T02:01:29;7.90;99.90
37594;DHT22;23441;50.856;6.076;2024-02-21T02:04:15;7.90;99.90
37594;DHT22;23441;50.856;6.076;2024-02-21T02:07:02;7.90;99.90
37594;DHT22;23441;50.856;6.076;2024-02-21T02:09:49;7.90;99.90
37594;DHT22;23441;50.856;6.076;2024-02-21T02:12:36;7.90;99.90
37594;DHT22;23441;50.856;6.076;2024-02-21T02:15:22;7.90;99.90
37594;DHT22;23441;50.856;6.076;2024-02-21T02:18:08;7.90;99.90
37594;DHT22;23441;50.856;6.076;2024-02-21T02:20:54;7.90;99.90
37594;DHT22;23441;50.856;6.076;2024-02-21T02:23:40;7.90;99.90
37594;DHT22;23441;50.856;6.076;2024-02-21T02:26:26;7.90;99.90
37594;DHT22;23441;50.856;6.076;2024-02-21T02:29:13;7.90;99.90
37594;DHT22;23441;50.856;6.076;2024-02-21T02:31:58;7.90;99.90
37594;DHT22;23441;50.856;6.076;2024-02-21T02:34:44;7.80;99.90
37594;DHT22;23441;50.856;6.076;2024-02-21T02:37:30;7.80;99.90
37594;DHT22;23441;50.856;6.076;2024-02-21T02:40:20;7.90;99.90
37594;DHT22;23441;50.856;6.076;2024-02-21T02:43:06;7.90;99.90
37594;DHT22;23441;50.856;6.076;2024-02-21T02:45:51;7.90;99.90
37594;DHT22;23441;50.856;6.076;2024-02-21T02:48:37;7.90;99.90
37594;DHT22;23441;50.856;6.076;2024-02-21T02:51:24;7.90;99.90
37594;DHT22;23441;50.856;6.076;2024-02-21T02:54:11;7.90;99.90
37594;DHT22;23441;50.856;6.076;2024-02-21T02:56:57;7.90;99.90
37594;DHT22;23441;50.856;6.076;2024-02-21T02:59:50;7.80;99.90
37594;DHT22;23441;50.856;6.076;2024-02-21T03:02:39;7.80;99.90
37594;DHT22;23441;50.856;6.076;2024-02-21T03:05:25;7.80;99.90
37594;DHT22;23441;50.856;6.076;2024-02-21T03:08:11;7.80;99.90
37594;DHT22;23441;50.856;6.076;2024-02-21T03:10:57;7.80;99.90
37594;DHT22;23441;50.856;6.076;2024-02-21T03:13:42;7.90;99.90
37594;DHT22;23441;50.856;6.076;2024-02-21T03:16:28;7.90;99.90
37594;DHT22;23441;50.856;6.076;2024-02-21T03:19:14;7.90;99.90
37594;DHT22;23441;50.856;6.076;2024-02-21T03:22:00;7.90;99.90
37594;DHT22;23441;50.856;6.076;2024-02-21T03:24:46;7.90;99.90
37594;DHT22;23441;50.856;6.076;2024-02-21T03:27:32;7.90;99.90
37594;DHT22;23441;50.856;6.076;2024-02-21T03:30:18;7.90;99.90
37594;DHT22;23441;50.856;6.076;2024-02-21T03:33:04;7.90;99.90
37594;DHT22;23441;50.856;6.076;2024-02-21T03:35:50;7.90;99.90
37594;DHT22;23441;50.856;6.076;2024-02-21T03:38:36;7.90;99.90
37594;DHT22;23441;50.856;6.076;2024-02-21T03:41:22;7.90;99.90
37594;DHT22;23441;50.856;6.076;2024-02-21T03:44:08;7.90;99.90
37594;DHT22;23441;50.856;6.076;2024-02-21T03:46:54;7.90;99.90
37594;DHT22;23441;50.856;6.076;2024-02-21T03:49:40;7.90;99.90
37594;DHT22;23441;50.856;6.076;2024-02-21T03:52:26;7.90;99.90
37594;DHT22;23441;50.856;6.076;2024-02-21T03:55:12;8.00;99.90
37594;DHT22;23441;50.856;6.076;2024-02-21T03:57:58;7.90;99.90
37594;DHT22;23441;50.856;6.076;2024-02-21T04:00:43;7.90;99.90
37594;DHT22;23441;50.856;6.076;2024-02-21T04:03:30;7.90;99.90
37594;DHT22;23441;50.856;6.076;2024-02-21T04:06:16;8.00;99.90
37594;DHT22;23441;50.856;6.076;2024-02-21T04:09:02;8.00;99.90
37594;DHT22;23441;50.856;6.076;2024-02-21T04:11:49;7.90;99.90
37594;DHT22;23441;50.856;6.076;2024-02-21T04:14:35;7.90;99.90
37594;DHT22;23441;50.856;6.076;2024-02-21T04:17:21;8.00;99.90
37594;DHT22;23441;50.856;6.076;2024-02-21T04:20:14;8.00;99.90
37594;DHT22;23441;50.856;6.076;2024-02-21T04:23:00;7.90;99.90
37594;DHT22;23441;50.856;6.076;2024-02-21T04:25:46;7.90;99.90
37594;DHT22;23441;50.856;6.076;2024-02-21T04:28:32;7.90;99.90
37594;DHT22;23441;50.856;6.076;2024-02-21T04:31:18;7.90;99.90
37594;DHT22;23441;50.856;6.076;2024-02-21T04:34:06;7.90;99.90
37594;DHT22;23441;50.856;6.076;2024-02-21T04:36:52;7.90;99.90
37594;DHT22;23441;50.856;6.076;2024-02-21T04:39:38;7.90;99.90
37594;DHT22;23441;50.856;6.076;2024-02-21T04:42:24;7.90;99.90
37594;DHT22;23441;50.856;6.076;2024-02-21T04:45:10;7.90;99.90
37594;DHT22;23441;50.856;6.076;2024-02-21T04:47:56;7.90;99.90
37594;DHT22;23441;50.856;6.076;2024-02-21T04:50:42;8.00;99.90
37594;DHT22;23441;50.856;6.076;2024-02-21T04:53:28;8.00;99.90
37594;DHT22;23441;50.856;6.076;2024-02-21T04:56:14;8.00;99.90
37594;DHT22;23441;50.856;6.076;2024-02-21T04:58:59;8.00;99.90
37594;DHT22;23441;50.856;6.076;2024-02-21T05:01:45;7.90;99.90
37594;DHT22;23441;50.856;6.076;2024-02-21T05:04:31;7.90;99.90
37594;DHT22;23441;50.856;6.076;2024-02-21T05:07:17;7.90;99.90
37594;DHT22;23441;50.856;6.076;2024-02-21T05:10:06;8.00;99.90
37594;DHT22;23441;50.856;6.076;2024-02-21T05:12:52;7.90;99.90
37594;DHT22;23441;50.856;6.076;2024-02-21T05:15:38;8.00;99.90
37594;DHT22;23441;50.856;6.076;2024-02-21T05:18:24;7.90;99.90
37594;DHT22;23441;50.856;6.076;2024-02-21T05:21:10;7.90;99.90
37594;DHT22;23441;50.856;6.076;2024-02-21T05:23:56;7.90;99.90
37594;DHT22;23441;50.856;6.076;2024-02-21T05:26:42;7.90;99.90
37594;DHT22;23441;50.856;6.076;2024-02-21T05:29:28;7.80;99.90
37594;DHT22;23441;50.856;6.076;2024-02-21T05:32:14;7.90;99.90
37594;DHT22;23441;50.856;6.076;2024-02-21T05:35:00;7.90;99.90
37594;DHT22;23441;50.856;6.076;2024-02-21T05:37:46;7.90;99.90
37594;DHT22;23441;50.856;6.076;2024-02-21T05:40:34;7.90;99.90
37594;DHT22;23441;50.856;6.076;2024-02-21T05:43:20;7.90;99.90
37594;DHT22;23441;50.856;6.076;2024-02-21T05:46:06;7.80;99.90
37594;DHT22;23441;50.856;6.076;2024-02-21T05:48:52;7.80;99.90
37594;DHT22;23441;50.856;6.076;2024-02-21T05:51:37;7.80;99.90
37594;DHT22;23441;50.856;6.076;2024-02-21T05:54:23;7.80;99.90
37594;DHT22;23441;50.856;6.076;2024-02-21T05:57:09;7.80;99.90
37594;DHT22;23441;50.856;6.076;2024-02-21T05:59:55;7.80;99.90
37594;DHT22;23441;50.856;6.076;2024-02-21T06:02:41;7.80;99.90
37594;DHT22;23441;50.856;6.076;2024-02-21T06:05:27;7.80;99.90
37594;DHT22;23441;50.856;6.076;2024-02-21T06:08:13;7.80;99.90
37594;DHT22;23441;50.856;6.076;2024-02-21T06:10:59;7.80;99.90
37594;DHT22;23441;50.856;6.076;2024-02-21T06:13:45;7.90;99.90
37594;DHT22;23441;50.856;6.076;2024-02-21T06:16:31;7.80;99.90
37594;DHT22;23441;50.856;6.076;2024-02-21T06:19:17;7.80;99.90
37594;DHT22;23441;50.856;6.076;2024-02-21T06:22:03;7.80;99.90
37594;DHT22;23441;50.856;6.076;2024-02-21T06:24:53;7.80;99.90
37594;DHT22;23441;50.856;6.076;2024-02-21T06:27:40;7.80;99.90
37594;DHT22;23441;50.856;6.076;2024-02-21T06:30:26;7.70;99.90
37594;DHT22;23441;50.856;6.076;2024-02-21T06:33:12;7.80;99.90
37594;DHT22;23441;50.856;6.076;2024-02-21T06:35:58;7.70;99.90
37594;DHT22;23441;50.856;6.076;2024-02-21T06:38:44;7.70;99.90
37594;DHT22;23441;50.856;6.076;2024-02-21T06:41:30;7.70;99.90
37594;DHT22;23441;50.856;6.076;2024-02-21T06:44:18;7.70;99.90
37594;DHT22;23441;50.856;6.076;2024-02-21T06:47:04;7.60;99.90
37594;DHT22;23441;50.856;6.076;2024-02-21T06:49:51;7.70;99.90
37594;DHT22;23441;50.856;6.076;2024-02-21T06:52:37;7.70;99.90
37594;DHT22;23441;50.856;6.076;2024-02-21T06:55:23;7.60;99.90
37594;DHT22;23441;50.856;6.076;2024-02-21T06:58:09;7.60;99.90
37594;DHT22;23441;50.856;6.076;2024-02-21T07:00:57;7.60;99.90
37594;DHT22;23441;50.856;6.076;2024-02-21T07:03:43;7.60;99.90
37594;DHT22;23441;50.856;6.076;2024-02-21T07:06:29;7.60;99.90
37594;DHT22;23441;50.856;6.076;2024-02-21T07:09:16;7.60;99.90
37594;DHT22;23441;50.856;6.076;2024-02-21T07:12:02;7.60;99.90
37594;DHT22;23441;50.856;6.076;2024-02-21T07:14:49;7.60;99.90
37594;DHT22;23441;50.856;6.076;2024-02-21T07:17:35;7.60;99.90
37594;DHT22;23441;50.856;6.076;2024-02-21T07:20:21;7.60;99.90
37594;DHT22;23441;50.856;6.076;2024-02-21T07:23:08;7.60;99.90
37594;DHT22;23441;50.856;6.076;2024-02-21T07:25:54;7.60;99.90
37594;DHT22;23441;50.856;6.076;2024-02-21T07:28:40;7.60;99.90
37594;DHT22;23441;50.856;6.076;2024-02-21T07:31:26;7.60;99.90
37594;DHT22;23441;50.856;6.076;2024-02-21T07:34:12;7.60;99.90
37594;DHT22;23441;50.856;6.076;2024-02-21T07:36:58;7.60;99.90
37594;DHT22;23441;50.856;6.076;2024-02-21T07:39:44;7.60;99.90
37594;DHT22;23441;50.856;6.076;2024-02-21T07:42:30;7.60;99.90
37594;DHT22;23441;50.856;6.076;2024-02-21T07:45:16;7.60;99.90
37594;DHT22;23441;50.856;6.076;2024-02-21T07:48:02;7.60;99.90
37594;DHT22;23441;50.856;6.076;2024-02-21T07:50:49;7.60;99.90
37594;DHT22;23441;50.856;6.076;2024-02-21T07:53:35;7.60;99.90
37594;DHT22;23441;50.856;6.076;2024-02-21T07:56:20;7.70;99.90
37594;DHT22;23441;50.856;6.076;2024-02-21T07:59:06;7.60;99.90
37594;DHT22;23441;50.856;6.076;2024-02-21T08:01:56;7.70;99.90
37594;DHT22;23441;50.856;6.076;2024-02-21T08:04:43;7.70;99.90
37594;DHT22;23441;50.856;6.076;2024-02-21T08:07:29;7.70;99.90
37594;DHT22;23441;50.856;6.076;2024-02-21T08:10:15;7.70;99.90
37594;DHT22;23441;50.856;6.076;2024-02-21T08:13:00;7.80;99.90
37594;DHT22;23441;50.856;6.076;2024-02-21T08:15:46;7.80;99.90
37594;DHT22;23441;50.856;6.076;2024-02-21T08:18:32;7.90;99.90
37594;DHT22;23441;50.856;6.076;2024-02-21T08:21:22;8.00;99.90
37594;DHT22;23441;50.856;6.076;2024-02-21T08:24:08;8.00;99.90
37594;DHT22;23441;50.856;6.076;2024-02-21T08:26:54;8.00;99.90
37594;DHT22;23441;50.856;6.076;2024-02-21T08:29:40;8.00;99.90
37594;DHT22;23441;50.856;6.076;2024-02-21T08:32:25;8.00;99.90
37594;DHT22;23441;50.856;6.076;2024-02-21T08:35:11;8.10;99.90
37594;DHT22;23441;50.856;6.076;2024-02-21T08:37:58;8.10;99.90
37594;DHT22;23441;50.856;6.076;2024-02-21T08:40:44;8.20;99.90
37594;DHT22;23441;50.856;6.076;2024-02-21T08:43:30;8.30;99.90
37594;DHT22;23441;50.856;6.076;2024-02-21T08:46:16;8.20;99.90
37594;DHT22;23441;50.856;6.076;2024-02-21T08:49:02;8.30;99.90
37594;DHT22;23441;50.856;6.076;2024-02-21T08:51:49;8.30;99.90
37594;DHT22;23441;50.856;6.076;2024-02-21T08:54:34;8.30;99.90
37594;DHT22;23441;50.856;6.076;2024-02-21T08:57:20;8.40;99.90
37594;DHT22;23441;50.856;6.076;2024-02-21T09:00:07;8.40;99.90
37594;DHT22;23441;50.856;6.076;2024-02-21T09:02:55;8.40;99.90
37594;DHT22;23441;50.856;6.076;2024-02-21T09:05:44;8.40;99.90
37594;DHT22;23441;50.856;6.076;2024-02-21T09:08:30;8.40;99.90
37594;DHT22;23441;50.856;6.076;2024-02-21T09:11:16;8.60;99.90
37594;DHT22;23441;50.856;6.076;2024-02-21T09:14:02;8.60;99.90
37594;DHT22;23441;50.856;6.076;2024-02-21T09:16:49;8.80;99.90
37594;DHT22;23441;50.856;6.076;2024-02-21T09:19:35;8.80;99.90
37594;DHT22;23441;50.856;6.076;2024-02-21T09:22:21;8.80;99.90
37594;DHT22;23441;50.856;6.076;2024-02-21T09:25:07;8.90;99.90
37594;DHT22;23441;50.856;6.076;2024-02-21T09:27:54;8.80;99.90
37594;DHT22;23441;50.856;6.076;2024-02-21T09:30:40;8.90;99.90
37594;DHT22;23441;50.856;6.076;2024-02-21T09:33:26;8.90;99.90
37594;DHT22;23441;50.856;6.076;2024-02-21T09:36:12;9.00;99.90
37594;DHT22;23441;50.856;6.076;2024-02-21T09:38:58;9.10;99.90
37594;DHT22;23441;50.856;6.076;2024-02-21T09:41:53;9.10;99.90
37594;DHT22;23441;50.856;6.076;2024-02-21T09:44:45;9.20;99.90
37594;DHT22;23441;50.856;6.076;2024-02-21T09:48:03;9.10;99.90
37594;DHT22;23441;50.856;6.076;2024-02-21T09:50:44;9.20;99.90
37594;DHT22;23441;50.856;6.076;2024-02-21T09:53:32;9.30;99.90
37594;DHT22;23441;50.856;6.076;2024-02-21T09:56:19;9.30;99.90
37594;DHT22;23441;50.856;6.076;2024-02-21T09:59:05;9.30;99.90
37594;DHT22;23441;50.856;6.076;2024-02-21T10:01:52;9.30;99.90
37594;DHT22;23441;50.856;6.076;2024-02-21T10:04:40;9.40;99.90
37594;DHT22;23441;50.856;6.076;2024-02-21T10:07:26;9.40;99.90
37594;DHT22;23441;50.856;6.076;2024-02-21T10:10:12;9.40;99.90
37594;DHT22;23441;50.856;6.076;2024-02-21T10:12:58;9.40;99.90
37594;DHT22;23441;50.856;6.076;2024-02-21T10:15:44;9.50;99.90
37594;DHT22;23441;50.856;6.076;2024-02-21T10:18:35;9.40;99.90
37594;DHT22;23441;50.856;6.076;2024-02-21T10:21:21;9.50;99.90
37594;DHT22;23441;50.856;6.076;2024-02-21T10:24:07;9.60;99.90
37594;DHT22;23441;50.856;6.076;2024-02-21T10:27:07;9.70;99.90
37594;DHT22;23441;50.856;6.076;2024-02-21T10:29:59;9.70;99.90
37594;DHT22;23441;50.856;6.076;2024-02-21T10:32:52;9.80;99.90
37594;DHT22;23441;50.856;6.076;2024-02-21T10:35:38;9.80;99.90
37594;DHT22;23441;50.856;6.076;2024-02-21T10:38:24;9.80;99.90
37594;DHT22;23441;50.856;6.076;2024-02-21T10:41:14;9.90;99.90
37594;DHT22;23441;50.856;6.076;2024-02-21T10:44:04;10.00;99.90
37594;DHT22;23441;50.856;6.076;2024-02-21T10:46:51;10.10;99.90
37594;DHT22;23441;50.856;6.076;2024-02-21T10:49:39;10.10;99.90
37594;DHT22;23441;50.856;6.076;2024-02-21T10:53:01;10.20;99.90
37594;DHT22;23441;50.856;6.076;2024-02-21T10:55:58;10.30;99.90
37594;DHT22;23441;50.856;6.076;2024-02-21T10:58:48;10.40;99.90
37594;DHT22;23441;50.856;6.076;2024-02-21T11:01:34;10.40;99.90
37594;DHT22;23441;50.856;6.076;2024-02-21T11:04:26;10.40;99.90
37594;DHT22;23441;50.856;6.076;2024-02-21T11:07:12;10.30;99.90
37594;DHT22;23441;50.856;6.076;2024-02-21T11:09:59;10.30;99.90
37594;DHT22;23441;50.856;6.076;2024-02-21T11:12:45;10.30;99.90
37594;DHT22;23441;50.856;6.076;2024-02-21T11:15:31;10.50;99.90
37594;DHT22;23441;50.856;6.076;2024-02-21T11:18:24;10.50;99.90
37594;DHT22;23441;50.856;6.076;2024-02-21T11:21:10;10.70;99.90
37594;DHT22;23441;50.856;6.076;2024-02-21T11:23:55;10.70;99.90
37594;DHT22;23441;50.856;6.076;2024-02-21T11:26:43;10.70;99.90
37594;DHT22;23441;50.856;6.076;2024-02-21T11:29:30;10.70;99.90
37594;DHT22;23441;50.856;6.076;2024-02-21T11:32:18;10.70;99.90
37594;DHT22;23441;50.856;6.076;2024-02-21T11:35:05;10.60;99.90
37594;DHT22;23441;50.856;6.076;2024-02-21T11:37:50;10.70;99.90
37594;DHT22;23441;50.856;6.076;2024-02-21T11:40:39;10.70;99.90
37594;DHT22;23441;50.856;6.076;2024-02-21T11:43:26;10.70;99.90
37594;DHT22;23441;50.856;6.076;2024-02-21T11:46:14;10.80;99.90
37594;DHT22;23441;50.856;6.076;2024-02-21T11:49:00;10.80;99.90
37594;DHT22;23441;50.856;6.076;2024-02-21T11:51:47;10.90;99.90
37594;DHT22;23441;50.856;6.076;2024-02-21T11:54:34;11.10;99.90
37594;DHT22;23441;50.856;6.076;2024-02-21T11:57:21;11.20;99.90
37594;DHT22;23441;50.856;6.076;2024-02-21T12:00:18;11.20;99.90
37594;DHT22;23441;50.856;6.076;2024-02-21T12:03:06;11.30;99.90
37594;DHT22;23441;50.856;6.076;2024-02-21T12:05:53;11.40;99.90
37594;DHT22;23441;50.856;6.076;2024-02-21T12:08:43;11.40;99.90
37594;DHT22;23441;50.856;6.076;2024-02-21T12:11:29;11.50;99.90
37594;DHT22;23441;50.856;6.076;2024-02-21T12:14:18;11.50;99.90
37594;DHT22;23441;50.856;6.076;2024-02-21T12:17:04;11.60;99.90
37594;DHT22;23441;50.856;6.076;2024-02-21T12:19:50;11.60;99.90
37594;DHT22;23441;50.856;6.076;2024-02-21T12:22:46;11.80;99.90
37594;DHT22;23441;50.856;6.076;2024-02-21T12:25:35;11.80;99.90
37594;DHT22;23441;50.856;6.076;2024-02-21T12:28:21;11.90;99.90
37594;DHT22;23441;50.856;6.076;2024-02-21T12:31:07;12.00;99.90
37594;DHT22;23441;50.856;6.076;2024-02-21T12:33:53;12.00;99.90
37594;DHT22;23441;50.856;6.076;2024-02-21T12:36:46;12.00;99.90
37594;DHT22;23441;50.856;6.076;2024-02-21T12:39:34;12.20;99.90
37594;DHT22;23441;50.856;6.076;2024-02-21T12:42:20;12.10;99.90
37594;DHT22;23441;50.856;6.076;2024-02-21T12:45:07;12.00;99.90
37594;DHT22;23441;50.856;6.076;2024-02-21T12:47:54;12.10;99.90
37594;DHT22;23441;50.856;6.076;2024-02-21T12:50:42;12.10;99.90
37594;DHT22;23441;50.856;6.076;2024-02-21T12:53:33;12.10;99.90
37594;DHT22;23441;50.856;6.076;2024-02-21T12:56:19;12.10;99.90
37594;DHT22;23441;50.856;6.076;2024-02-21T12:59:06;12.10;99.90
37594;DHT22;23441;50.856;6.076;2024-02-21T13:01:54;12.10;99.90
37594;DHT22;23441;50.856;6.076;2024-02-21T13:04:40;12.10;99.90
37594;DHT22;23441;50.856;6.076;2024-02-21T13:07:27;12.10;99.90
37594;DHT22;23441;50.856;6.076;2024-02-21T13:10:13;11.80;99.90
37594;DHT22;23441;50.856;6.076;2024-02-21T13:13:01;11.60;99.90
37594;DHT22;23441;50.856;6.076;2024-02-21T13:15:47;11.60;99.90
37594;DHT22;23441;50.856;6.076;2024-02-21T13:18:35;11.50;99.90
37594;DHT22;23441;50.856;6.076;2024-02-21T13:21:23;11.40;99.90
37594;DHT22;23441;50.856;6.076;2024-02-21T13:24:09;11.30;99.90
37594;DHT22;23441;50.856;6.076;2024-02-21T13:26:55;11.40;99.90
37594;DHT22;23441;50.856;6.076;2024-02-21T13:29:41;11.30;99.90
37594;DHT22;23441;50.856;6.076;2024-02-21T13:32:27;11.40;99.90
37594;DHT22;23441;50.856;6.076;2024-02-21T13:35:13;11.40;99.90
37594;DHT22;23441;50.856;6.076;2024-02-21T13:37:59;11.30;99.90
37594;DHT22;23441;50.856;6.076;2024-02-21T13:40:46;11.20;99.90
37594;DHT22;23441;50.856;6.076;2024-02-21T13:43:32;11.20;99.90
37594;DHT22;23441;50.856;6.076;2024-02-21T13:46:18;11.20;99.90
37594;DHT22;23441;50.856;6.076;2024-02-21T13:49:05;11.10;99.90
37594;DHT22;23441;50.856;6.076;2024-02-21T13:51:54;11.10;99.90
37594;DHT22;23441;50.856;6.076;2024-02-21T13:54:40;11.20;99.90
37594;DHT22;23441;50.856;6.076;2024-02-21T13:57:27;11.10;99.90
37594;DHT22;23441;50.856;6.076;2024-02-21T14:00:13;11.10;99.90
37594;DHT22;23441;50.856;6.076;2024-02-21T14:03:00;11.10;99.90
37594;DHT22;23441;50.856;6.076;2024-02-21T14:05:46;11.10;99.90
37594;DHT22;23441;50.856;6.076;2024-02-21T14:08:34;11.10;99.90
37594;DHT22;23441;50.856;6.076;2024-02-21T14:11:20;11.00;99.90
37594;DHT22;23441;50.856;6.076;2024-02-21T14:14:06;11.10;99.90
37594;DHT22;23441;50.856;6.076;2024-02-21T14:16:52;11.10;99.90
37594;DHT22;23441;50.856;6.076;2024-02-21T14:19:38;11.10;99.90
37594;DHT22;23441;50.856;6.076;2024-02-21T14:22:24;11.20;99.90
37594;DHT22;23441;50.856;6.076;2024-02-21T14:25:10;11.00;99.90
37594;DHT22;23441;50.856;6.076;2024-02-21T14:27:56;11.00;99.90
37594;DHT22;23441;50.856;6.076;2024-02-21T14:30:41;11.00;99.90
37594;DHT22;23441;50.856;6.076;2024-02-21T14:33:27;11.00;99.90
37594;DHT22;23441;50.856;6.076;2024-02-21T14:36:13;11.00;99.90
37594;DHT22;23441;50.856;6.076;2024-02-21T14:39:01;10.80;99.90
37594;DHT22;23441;50.856;6.076;2024-02-21T14:41:47;10.80;99.90
37594;DHT22;23441;50.856;6.076;2024-02-21T14:44:33;10.80;99.90
37594;DHT22;23441;50.856;6.076;2024-02-21T14:47:21;10.90;99.90
37594;DHT22;23441;50.856;6.076;2024-02-21T14:50:07;10.90;99.90
37594;DHT22;23441;50.856;6.076;2024-02-21T14:52:53;10.80;99.90
37594;DHT22;23441;50.856;6.076;2024-02-21T14:55:39;10.80;99.90
37594;DHT22;23441;50.856;6.076;2024-02-21T14:58:27;10.80;99.90
37594;DHT22;23441;50.856;6.076;2024-02-21T15:01:13;10.70;99.90
37594;DHT22;23441;50.856;6.076;2024-02-21T15:03:59;10.70;99.90
37594;DHT22;23441;50.856;6.076;2024-02-21T15:06:45;10.60;99.90
37594;DHT22;23441;50.856;6.076;2024-02-21T15:09:31;10.70;99.90
37594;DHT22;23441;50.856;6.076;2024-02-21T15:12:17;10.70;99.90
37594;DHT22;23441;50.856;6.076;2024-02-21T15:15:03;10.60;99.90
37594;DHT22;23441;50.856;6.076;2024-02-21T15:17:50;10.60;99.90
37594;DHT22;23441;50.856;6.076;2024-02-21T15:20:36;10.50;99.90
37594;DHT22;23441;50.856;6.076;2024-02-21T15:23:22;10.50;99.90
37594;DHT22;23441;50.856;6.076;2024-02-21T15:26:10;10.40;99.90
37594;DHT22;23441;50.856;6.076;2024-02-21T15:28:56;10.30;99.90
37594;DHT22;23441;50.856;6.076;2024-02-21T15:31:42;10.20;99.90
37594;DHT22;23441;50.856;6.076;2024-02-21T15:34:32;10.30;99.90
37594;DHT22;23441;50.856;6.076;2024-02-21T15:37:18;10.30;99.90
37594;DHT22;23441;50.856;6.076;2024-02-21T15:40:04;10.20;99.90
37594;DHT22;23441;50.856;6.076;2024-02-21T15:42:52;10.20;99.90
37594;DHT22;23441;50.856;6.076;2024-02-21T15:45:39;10.00;99.90
37594;DHT22;23441;50.856;6.076;2024-02-21T15:48:25;9.90;99.90
37594;DHT22;23441;50.856;6.076;2024-02-21T15:51:11;9.80;99.90
37594;DHT22;23441;50.856;6.076;2024-02-21T15:53:58;9.70;99.90
37594;DHT22;23441;50.856;6.076;2024-02-21T15:56:44;9.60;99.90
37594;DHT22;23441;50.856;6.076;2024-02-21T15:59:31;9.60;99.90
37594;DHT22;23441;50.856;6.076;2024-02-21T16:02:17;9.60;99.90
37594;DHT22;23441;50.856;6.076;2024-02-21T16:05:05;9.50;99.90
37594;DHT22;23441;50.856;6.076;2024-02-21T16:07:54;9.40;99.90
37594;DHT22;23441;50.856;6.076;2024-02-21T16:10:40;9.40;99.90
37594;DHT22;23441;50.856;6.076;2024-02-21T16:13:26;9.40;99.90
37594;DHT22;23441;50.856;6.076;2024-02-21T16:16:12;9.40;99.90
37594;DHT22;23441;50.856;6.076;2024-02-21T16:18:58;9.30;99.90
37594;DHT22;23441;50.856;6.076;2024-02-21T16:21:44;9.40;99.90
37594;DHT22;23441;50.856;6.076;2024-02-21T16:24:31;9.40;99.90
37594;DHT22;23441;50.856;6.076;2024-02-21T16:27:18;9.40;99.90
37594;DHT22;23441;50.856;6.076;2024-02-21T16:30:06;9.40;99.90
37594;DHT22;23441;50.856;6.076;2024-02-21T16:32:53;9.30;99.90
37594;DHT22;23441;50.856;6.076;2024-02-21T16:35:39;9.20;99.90
37594;DHT22;23441;50.856;6.076;2024-02-21T16:38:25;9.20;99.90
37594;DHT22;23441;50.856;6.076;2024-02-21T16:41:12;9.10;99.90
37594;DHT22;23441;50.856;6.076;2024-02-21T16:43:58;9.00;99.90
37594;DHT22;23441;50.856;6.076;2024-02-21T16:46:44;9.00;99.90
37594;DHT22;23441;50.856;6.076;2024-02-21T16:49:30;8.90;99.90
37594;DHT22;23441;50.856;6.076;2024-02-21T16:52:16;8.80;99.90
37594;DHT22;23441;50.856;6.076;2024-02-21T16:55:02;8.80;99.90
37594;DHT22;23441;50.856;6.076;2024-02-21T16:57:48;8.80;99.90
37594;DHT22;23441;50.856;6.076;2024-02-21T17:00:35;8.70;99.90
37594;DHT22;23441;50.856;6.076;2024-02-21T17:03:24;8.70;99.90
37594;DHT22;23441;50.856;6.076;2024-02-21T17:06:12;8.70;99.90
37594;DHT22;23441;50.856;6.076;2024-02-21T17:08:59;8.60;99.90
37594;DHT22;23441;50.856;6.076;2024-02-21T17:11:46;8.50;99.90
37594;DHT22;23441;50.856;6.076;2024-02-21T17:14:33;8.50;99.90
37594;DHT22;23441;50.856;6.076;2024-02-21T17:17:20;8.40;99.90
37594;DHT22;23441;50.856;6.076;2024-02-21T17:20:06;8.30;99.90
37594;DHT22;23441;50.856;6.076;2024-02-21T17:22:53;8.30;99.90
37594;DHT22;23441;50.856;6.076;2024-02-21T17:25:39;8.30;99.90
37594;DHT22;23441;50.856;6.076;2024-02-21T17:28:25;8.20;99.90
37594;DHT22;23441;50.856;6.076;2024-02-21T17:31:11;8.20;99.90
37594;DHT22;23441;50.856;6.076;2024-02-21T17:33:57;8.20;99.90
37594;DHT22;23441;50.856;6.076;2024-02-21T17:36:43;8.20;99.90
37594;DHT22;23441;50.856;6.076;2024-02-21T17:39:29;8.10;99.90
37594;DHT22;23441;50.856;6.076;2024-02-21T17:42:15;8.10;99.90
37594;DHT22;23441;50.856;6.076;2024-02-21T17:45:03;8.10;99.90
37594;DHT22;23441;50.856;6.076;2024-02-21T17:47:49;8.10;99.90